Huvudsida
METAR-TAF:

METAR-TAF

Flygplatser :

Curaçaos internationella flygplats

Curaçao, Nederländska Antillerna

latitud: 12-12N, longitud: 068-58W, höjd: 9 m

Aktuellt väderrapport

Denna rapport gjordes för 58 minuter sedan, klockan 08:00 UTC
Vind 8 kt från ost/sydost
Temperatur 25°C
Fuktighet 74%
Tryck 1015 hPa
Sikt 10 km eller mer
Få moln på en höjd av 2200 ft

METAR: TNCC 160800Z 12008KT 9999 FEW022 25/20 Q1015 NOSIG

Tid: 04:58 (08:58 UTC)

Väderprognos

Denna rapport gjordes för 4 timmar och 58 minuter sedan, klockan 04:00 UTC
Prognos gäller från 16 kl. 06 UTC till 17 kl. 06 UTC
Vind 15 kt från ost
Sikt 10 km eller mer
Spridda moln på en höjd av 2000 ft

TAF: TNCC 160400Z 1606/1706 10015KT 9999 SCT020

Aktuella väderrapporter och prognoser från 4000 flygplatser (METAR- och TAF-rapporter).

De tillgängliga stationerna syns som gula och röda prickar på kartan.

För musen över prickarna för att se namnen på stationerna.

Klicka sedan för att få väderrapporter och prognoser.

För att ändra kartan: Klicka på de gröna knapparna med ett svart kors på för att zooma in; den gröna knappen med ett streck på för att zooma ut; eller på de gröna pilarna för angränsande kartor.


METAR-TAF: